sensor_id;sensor_type;location;lat;lon;timestamp;P1;durP1;ratioP1;P2;durP2;ratioP2
2966;SDS011;1493;51.496;7.210;2023-07-29T00:01:50;3.23;;;2.00;;
2966;SDS011;1493;51.496;7.210;2023-07-29T00:04:19;2.67;;;2.27;;
2966;SDS011;1493;51.496;7.210;2023-07-29T00:06:46;3.70;;;2.40;;
2966;SDS011;1493;51.496;7.210;2023-07-29T00:09:13;3.37;;;2.67;;
2966;SDS011;1493;51.496;7.210;2023-07-29T00:11:40;3.90;;;2.60;;
2966;SDS011;1493;51.496;7.210;2023-07-29T00:14:07;3.97;;;2.90;;
2966;SDS011;1493;51.496;7.210;2023-07-29T00:16:35;4.20;;;2.10;;
2966;SDS011;1493;51.496;7.210;2023-07-29T00:19:02;2.20;;;1.90;;
2966;SDS011;1493;51.496;7.210;2023-07-29T00:21:29;4.33;;;2.77;;
2966;SDS011;1493;51.496;7.210;2023-07-29T00:23:56;2.63;;;2.43;;
2966;SDS011;1493;51.496;7.210;2023-07-29T00:26:23;3.23;;;2.23;;
2966;SDS011;1493;51.496;7.210;2023-07-29T00:28:53;6.33;;;2.43;;
2966;SDS011;1493;51.496;7.210;2023-07-29T00:31:20;5.37;;;2.53;;
2966;SDS011;1493;51.496;7.210;2023-07-29T00:33:48;2.90;;;2.40;;
2966;SDS011;1493;51.496;7.210;2023-07-29T00:36:15;3.70;;;2.33;;
2966;SDS011;1493;51.496;7.210;2023-07-29T00:38:42;3.33;;;3.03;;
2966;SDS011;1493;51.496;7.210;2023-07-29T00:41:09;3.80;;;2.30;;
2966;SDS011;1493;51.496;7.210;2023-07-29T00:43:38;3.00;;;2.70;;
2966;SDS011;1493;51.496;7.210;2023-07-29T00:46:05;3.33;;;2.30;;
2966;SDS011;1493;51.496;7.210;2023-07-29T00:48:33;3.80;;;3.00;;
2966;SDS011;1493;51.496;7.210;2023-07-29T00:51:01;3.17;;;2.87;;
2966;SDS011;1493;51.496;7.210;2023-07-29T00:53:28;3.00;;;2.63;;
2966;SDS011;1493;51.496;7.210;2023-07-29T00:55:55;2.67;;;2.47;;
2966;SDS011;1493;51.496;7.210;2023-07-29T00:58:22;3.13;;;2.80;;
2966;SDS011;1493;51.496;7.210;2023-07-29T01:00:49;2.60;;;2.40;;
2966;SDS011;1493;51.496;7.210;2023-07-29T01:03:16;3.10;;;2.53;;
2966;SDS011;1493;51.496;7.210;2023-07-29T01:05:46;2.93;;;2.70;;
2966;SDS011;1493;51.496;7.210;2023-07-29T01:08:27;2.90;;;2.70;;
2966;SDS011;1493;51.496;7.210;2023-07-29T01:11:01;3.80;;;3.10;;
2966;SDS011;1493;51.496;7.210;2023-07-29T01:13:41;6.00;;;2.77;;
2966;SDS011;1493;51.496;7.210;2023-07-29T01:16:15;3.00;;;2.70;;
2966;SDS011;1493;51.496;7.210;2023-07-29T01:18:47;3.40;;;3.00;;
2966;SDS011;1493;51.496;7.210;2023-07-29T01:21:15;3.33;;;2.83;;
2966;SDS011;1493;51.496;7.210;2023-07-29T01:23:44;3.97;;;3.57;;
2966;SDS011;1493;51.496;7.210;2023-07-29T01:26:11;3.97;;;3.20;;
2966;SDS011;1493;51.496;7.210;2023-07-29T01:28:38;3.33;;;2.90;;
2966;SDS011;1493;51.496;7.210;2023-07-29T01:31:07;3.83;;;2.97;;
2966;SDS011;1493;51.496;7.210;2023-07-29T01:33:39;4.87;;;3.37;;
2966;SDS011;1493;51.496;7.210;2023-07-29T01:36:11;4.00;;;3.60;;
2966;SDS011;1493;51.496;7.210;2023-07-29T01:38:41;3.00;;;2.80;;
2966;SDS011;1493;51.496;7.210;2023-07-29T01:41:11;4.73;;;3.73;;
2966;SDS011;1493;51.496;7.210;2023-07-29T01:43:38;3.83;;;3.40;;
2966;SDS011;1493;51.496;7.210;2023-07-29T01:46:09;4.63;;;3.43;;
2966;SDS011;1493;51.496;7.210;2023-07-29T01:48:36;4.30;;;3.80;;
2966;SDS011;1493;51.496;7.210;2023-07-29T01:51:03;3.73;;;3.43;;
2966;SDS011;1493;51.496;7.210;2023-07-29T01:53:30;3.33;;;3.03;;
2966;SDS011;1493;51.496;7.210;2023-07-29T01:55:57;3.57;;;3.27;;
2966;SDS011;1493;51.496;7.210;2023-07-29T01:58:26;4.03;;;3.73;;
2966;SDS011;1493;51.496;7.210;2023-07-29T02:00:52;4.50;;;3.93;;
2966;SDS011;1493;51.496;7.210;2023-07-29T02:03:19;4.70;;;3.53;;
2966;SDS011;1493;51.496;7.210;2023-07-29T02:05:46;4.30;;;4.00;;
2966;SDS011;1493;51.496;7.210;2023-07-29T02:08:13;3.90;;;3.60;;
2966;SDS011;1493;51.496;7.210;2023-07-29T02:10:40;7.17;;;4.00;;
2966;SDS011;1493;51.496;7.210;2023-07-29T02:13:10;4.03;;;3.50;;
2966;SDS011;1493;51.496;7.210;2023-07-29T02:15:38;3.97;;;3.67;;
2966;SDS011;1493;51.496;7.210;2023-07-29T02:18:04;5.57;;;3.60;;
2966;SDS011;1493;51.496;7.210;2023-07-29T02:20:32;3.67;;;3.37;;
2966;SDS011;1493;51.496;7.210;2023-07-29T02:22:59;3.80;;;3.50;;
2966;SDS011;1493;51.496;7.210;2023-07-29T02:25:26;3.60;;;3.30;;
2966;SDS011;1493;51.496;7.210;2023-07-29T02:27:52;4.10;;;3.33;;
2966;SDS011;1493;51.496;7.210;2023-07-29T02:30:20;3.50;;;3.20;;
2966;SDS011;1493;51.496;7.210;2023-07-29T02:32:48;4.20;;;3.43;;
2966;SDS011;1493;51.496;7.210;2023-07-29T02:35:15;3.70;;;3.40;;
2966;SDS011;1493;51.496;7.210;2023-07-29T02:37:42;3.63;;;3.33;;
2966;SDS011;1493;51.496;7.210;2023-07-29T02:40:09;4.90;;;3.50;;
2966;SDS011;1493;51.496;7.210;2023-07-29T02:42:36;4.03;;;3.70;;
2966;SDS011;1493;51.496;7.210;2023-07-29T02:45:03;4.17;;;3.80;;
2966;SDS011;1493;51.496;7.210;2023-07-29T02:47:34;4.03;;;3.70;;
2966;SDS011;1493;51.496;7.210;2023-07-29T02:50:03;3.37;;;3.07;;
2966;SDS011;1493;51.496;7.210;2023-07-29T02:52:30;3.70;;;3.40;;
2966;SDS011;1493;51.496;7.210;2023-07-29T02:54:57;4.30;;;3.90;;
2966;SDS011;1493;51.496;7.210;2023-07-29T02:57:24;5.50;;;4.47;;
2966;SDS011;1493;51.496;7.210;2023-07-29T02:59:51;3.53;;;3.23;;
2966;SDS011;1493;51.496;7.210;2023-07-29T03:02:17;4.90;;;3.20;;
2966;SDS011;1493;51.496;7.210;2023-07-29T03:04:44;3.33;;;3.00;;
2966;SDS011;1493;51.496;7.210;2023-07-29T03:07:12;3.37;;;2.90;;
2966;SDS011;1493;51.496;7.210;2023-07-29T03:09:39;4.37;;;3.67;;
2966;SDS011;1493;51.496;7.210;2023-07-29T03:12:07;3.80;;;3.50;;
2966;SDS011;1493;51.496;7.210;2023-07-29T03:14:34;3.47;;;2.93;;
2966;SDS011;1493;51.496;7.210;2023-07-29T03:17:02;3.37;;;3.07;;
2966;SDS011;1493;51.496;7.210;2023-07-29T03:19:29;3.70;;;3.33;;
2966;SDS011;1493;51.496;7.210;2023-07-29T03:21:56;4.00;;;3.33;;
2966;SDS011;1493;51.496;7.210;2023-07-29T03:24:24;2.90;;;2.67;;
2966;SDS011;1493;51.496;7.210;2023-07-29T03:26:51;6.53;;;3.10;;
2966;SDS011;1493;51.496;7.210;2023-07-29T03:29:18;3.37;;;2.90;;
2966;SDS011;1493;51.496;7.210;2023-07-29T03:31:44;3.37;;;3.07;;
2966;SDS011;1493;51.496;7.210;2023-07-29T03:34:11;3.70;;;2.83;;
2966;SDS011;1493;51.496;7.210;2023-07-29T03:36:38;3.53;;;2.43;;
2966;SDS011;1493;51.496;7.210;2023-07-29T03:39:05;2.80;;;2.53;;
2966;SDS011;1493;51.496;7.210;2023-07-29T03:41:34;4.70;;;2.50;;
2966;SDS011;1493;51.496;7.210;2023-07-29T03:44:00;3.63;;;3.20;;
2966;SDS011;1493;51.496;7.210;2023-07-29T03:46:27;2.33;;;2.10;;
2966;SDS011;1493;51.496;7.210;2023-07-29T03:48:54;2.33;;;2.03;;
2966;SDS011;1493;51.496;7.210;2023-07-29T03:51:21;2.40;;;2.20;;
2966;SDS011;1493;51.496;7.210;2023-07-29T03:53:49;3.23;;;2.93;;
2966;SDS011;1493;51.496;7.210;2023-07-29T03:56:16;2.87;;;2.37;;
2966;SDS011;1493;51.496;7.210;2023-07-29T03:58:45;2.93;;;2.20;;
2966;SDS011;1493;51.496;7.210;2023-07-29T04:01:13;4.47;;;2.90;;
2966;SDS011;1493;51.496;7.210;2023-07-29T04:03:40;3.63;;;3.00;;
2966;SDS011;1493;51.496;7.210;2023-07-29T04:06:06;3.73;;;3.30;;
2966;SDS011;1493;51.496;7.210;2023-07-29T04:08:33;3.40;;;3.13;;
2966;SDS011;1493;51.496;7.210;2023-07-29T04:11:00;2.93;;;2.73;;
2966;SDS011;1493;51.496;7.210;2023-07-29T04:13:27;3.30;;;3.00;;
2966;SDS011;1493;51.496;7.210;2023-07-29T04:15:55;4.50;;;2.90;;
2966;SDS011;1493;51.496;7.210;2023-07-29T04:18:22;4.07;;;3.50;;
2966;SDS011;1493;51.496;7.210;2023-07-29T04:20:49;4.83;;;2.90;;
2966;SDS011;1493;51.496;7.210;2023-07-29T04:23:15;3.20;;;2.90;;
2966;SDS011;1493;51.496;7.210;2023-07-29T04:25:42;5.83;;;3.20;;
2966;SDS011;1493;51.496;7.210;2023-07-29T04:28:09;3.10;;;2.80;;
2966;SDS011;1493;51.496;7.210;2023-07-29T04:30:36;8.20;;;3.37;;
2966;SDS011;1493;51.496;7.210;2023-07-29T04:33:04;4.10;;;3.27;;
2966;SDS011;1493;51.496;7.210;2023-07-29T04:35:33;4.37;;;3.20;;
2966;SDS011;1493;51.496;7.210;2023-07-29T04:38:00;5.60;;;2.93;;
2966;SDS011;1493;51.496;7.210;2023-07-29T04:40:26;4.70;;;3.67;;
2966;SDS011;1493;51.496;7.210;2023-07-29T04:42:53;4.67;;;3.27;;
2966;SDS011;1493;51.496;7.210;2023-07-29T04:45:20;5.03;;;4.03;;
2966;SDS011;1493;51.496;7.210;2023-07-29T04:47:47;4.70;;;4.30;;
2966;SDS011;1493;51.496;7.210;2023-07-29T04:50:17;6.33;;;4.60;;
2966;SDS011;1493;51.496;7.210;2023-07-29T04:52:43;5.20;;;4.50;;
2966;SDS011;1493;51.496;7.210;2023-07-29T04:55:10;7.20;;;5.13;;
2966;SDS011;1493;51.496;7.210;2023-07-29T04:57:37;4.73;;;4.33;;
2966;SDS011;1493;51.496;7.210;2023-07-29T05:00:05;5.03;;;4.60;;
2966;SDS011;1493;51.496;7.210;2023-07-29T05:02:33;5.23;;;4.73;;
2966;SDS011;1493;51.496;7.210;2023-07-29T05:04:59;5.40;;;4.93;;
2966;SDS011;1493;51.496;7.210;2023-07-29T05:07:28;4.90;;;4.40;;
2966;SDS011;1493;51.496;7.210;2023-07-29T05:09:55;4.40;;;4.10;;
2966;SDS011;1493;51.496;7.210;2023-07-29T05:12:22;4.70;;;4.30;;
2966;SDS011;1493;51.496;7.210;2023-07-29T05:14:48;4.47;;;4.07;;
2966;SDS011;1493;51.496;7.210;2023-07-29T05:17:15;5.47;;;3.70;;
2966;SDS011;1493;51.496;7.210;2023-07-29T05:19:42;4.73;;;4.03;;
2966;SDS011;1493;51.496;7.210;2023-07-29T05:22:09;4.67;;;4.27;;
2966;SDS011;1493;51.496;7.210;2023-07-29T05:24:37;9.47;;;4.73;;
2966;SDS011;1493;51.496;7.210;2023-07-29T05:27:07;5.30;;;4.23;;
2966;SDS011;1493;51.496;7.210;2023-07-29T05:29:34;5.10;;;4.60;;
2966;SDS011;1493;51.496;7.210;2023-07-29T05:32:02;5.87;;;5.37;;
2966;SDS011;1493;51.496;7.210;2023-07-29T05:34:29;6.20;;;5.40;;
2966;SDS011;1493;51.496;7.210;2023-07-29T05:36:56;6.93;;;5.33;;
2966;SDS011;1493;51.496;7.210;2023-07-29T05:39:23;5.70;;;5.20;;
2966;SDS011;1493;51.496;7.210;2023-07-29T05:41:51;7.50;;;6.20;;
2966;SDS011;1493;51.496;7.210;2023-07-29T05:44:18;7.33;;;6.63;;
2966;SDS011;1493;51.496;7.210;2023-07-29T05:46:45;8.80;;;6.60;;
2966;SDS011;1493;51.496;7.210;2023-07-29T05:49:12;7.37;;;6.67;;
2966;SDS011;1493;51.496;7.210;2023-07-29T05:51:43;7.37;;;6.77;;
2966;SDS011;1493;51.496;7.210;2023-07-29T05:54:10;8.23;;;7.43;;
2966;SDS011;1493;51.496;7.210;2023-07-29T05:56:37;9.60;;;8.80;;
2966;SDS011;1493;51.496;7.210;2023-07-29T05:59:05;10.33;;;9.17;;
2966;SDS011;1493;51.496;7.210;2023-07-29T06:01:32;9.97;;;9.17;;
2966;SDS011;1493;51.496;7.210;2023-07-29T06:04:00;9.77;;;8.87;;
2966;SDS011;1493;51.496;7.210;2023-07-29T06:06:27;10.67;;;9.67;;
2966;SDS011;1493;51.496;7.210;2023-07-29T06:08:54;11.10;;;10.00;;
2966;SDS011;1493;51.496;7.210;2023-07-29T06:11:20;10.17;;;9.27;;
2966;SDS011;1493;51.496;7.210;2023-07-29T06:13:47;10.70;;;9.70;;
2966;SDS011;1493;51.496;7.210;2023-07-29T06:16:15;10.53;;;9.40;;
2966;SDS011;1493;51.496;7.210;2023-07-29T06:18:42;9.87;;;8.87;;
2966;SDS011;1493;51.496;7.210;2023-07-29T06:21:09;8.47;;;7.77;;
2966;SDS011;1493;51.496;7.210;2023-07-29T06:23:41;7.43;;;6.73;;
2966;SDS011;1493;51.496;7.210;2023-07-29T06:26:08;7.90;;;7.03;;
2966;SDS011;1493;51.496;7.210;2023-07-29T06:28:35;7.47;;;6.77;;
2966;SDS011;1493;51.496;7.210;2023-07-29T06:31:02;4.93;;;4.43;;
2966;SDS011;1493;51.496;7.210;2023-07-29T06:33:30;5.30;;;4.40;;
2966;SDS011;1493;51.496;7.210;2023-07-29T06:35:57;5.00;;;4.20;;
2966;SDS011;1493;51.496;7.210;2023-07-29T06:38:24;3.87;;;3.20;;
2966;SDS011;1493;51.496;7.210;2023-07-29T06:40:50;3.73;;;2.97;;
2966;SDS011;1493;51.496;7.210;2023-07-29T06:43:17;4.37;;;2.40;;
2966;SDS011;1493;51.496;7.210;2023-07-29T06:45:44;2.97;;;2.67;;
2966;SDS011;1493;51.496;7.210;2023-07-29T06:48:11;3.63;;;2.93;;
2966;SDS011;1493;51.496;7.210;2023-07-29T06:50:39;4.33;;;2.63;;
2966;SDS011;1493;51.496;7.210;2023-07-29T06:53:06;4.30;;;3.07;;
2966;SDS011;1493;51.496;7.210;2023-07-29T06:55:35;5.37;;;2.50;;
2966;SDS011;1493;51.496;7.210;2023-07-29T06:58:02;4.03;;;2.53;;
2966;SDS011;1493;51.496;7.210;2023-07-29T07:00:29;4.00;;;3.00;;
2966;SDS011;1493;51.496;7.210;2023-07-29T07:02:55;5.20;;;2.10;;
2966;SDS011;1493;51.496;7.210;2023-07-29T07:05:22;2.27;;;1.83;;
2966;SDS011;1493;51.496;7.210;2023-07-29T07:07:51;2.30;;;2.00;;
2966;SDS011;1493;51.496;7.210;2023-07-29T07:10:17;2.20;;;1.63;;
2966;SDS011;1493;51.496;7.210;2023-07-29T07:12:44;2.30;;;1.90;;
2966;SDS011;1493;51.496;7.210;2023-07-29T07:15:11;3.20;;;2.50;;
2966;SDS011;1493;51.496;7.210;2023-07-29T07:17:38;3.53;;;2.40;;
2966;SDS011;1493;51.496;7.210;2023-07-29T07:20:05;3.33;;;1.87;;
2966;SDS011;1493;51.496;7.210;2023-07-29T07:22:33;2.67;;;1.90;;
2966;SDS011;1493;51.496;7.210;2023-07-29T07:25:01;4.20;;;2.50;;
2966;SDS011;1493;51.496;7.210;2023-07-29T07:27:28;2.90;;;1.80;;
2966;SDS011;1493;51.496;7.210;2023-07-29T07:29:55;3.23;;;1.97;;
2966;SDS011;1493;51.496;7.210;2023-07-29T07:32:22;3.53;;;2.40;;
2966;SDS011;1493;51.496;7.210;2023-07-29T07:34:49;3.00;;;1.97;;
2966;SDS011;1493;51.496;7.210;2023-07-29T07:37:16;2.53;;;1.93;;
2966;SDS011;1493;51.496;7.210;2023-07-29T07:39:42;2.47;;;1.53;;
2966;SDS011;1493;51.496;7.210;2023-07-29T07:42:10;2.27;;;1.73;;
2966;SDS011;1493;51.496;7.210;2023-07-29T07:44:37;2.67;;;1.87;;
2966;SDS011;1493;51.496;7.210;2023-07-29T07:47:04;2.67;;;1.93;;
2966;SDS011;1493;51.496;7.210;2023-07-29T07:49:33;2.90;;;1.73;;
2966;SDS011;1493;51.496;7.210;2023-07-29T07:52:00;3.87;;;1.77;;
2966;SDS011;1493;51.496;7.210;2023-07-29T07:54:26;2.67;;;1.73;;
2966;SDS011;1493;51.496;7.210;2023-07-29T07:56:53;2.30;;;1.87;;
2966;SDS011;1493;51.496;7.210;2023-07-29T07:59:21;2.50;;;1.77;;
2966;SDS011;1493;51.496;7.210;2023-07-29T08:01:48;2.33;;;1.80;;
2966;SDS011;1493;51.496;7.210;2023-07-29T08:04:15;6.03;;;2.30;;
2966;SDS011;1493;51.496;7.210;2023-07-29T08:06:42;3.67;;;2.23;;
2966;SDS011;1493;51.496;7.210;2023-07-29T08:09:09;3.10;;;1.60;;
2966;SDS011;1493;51.496;7.210;2023-07-29T08:11:35;2.43;;;1.70;;
2966;SDS011;1493;51.496;7.210;2023-07-29T08:14:02;2.40;;;1.47;;
2966;SDS011;1493;51.496;7.210;2023-07-29T08:16:30;2.63;;;1.80;;
2966;SDS011;1493;51.496;7.210;2023-07-29T08:18:57;2.00;;;1.53;;
2966;SDS011;1493;51.496;7.210;2023-07-29T08:21:24;2.30;;;1.67;;
2966;SDS011;1493;51.496;7.210;2023-07-29T08:23:52;2.70;;;1.60;;
2966;SDS011;1493;51.496;7.210;2023-07-29T08:26:19;2.73;;;1.70;;
2966;SDS011;1493;51.496;7.210;2023-07-29T08:28:46;2.67;;;1.60;;
2966;SDS011;1493;51.496;7.210;2023-07-29T08:31:14;2.20;;;1.47;;
2966;SDS011;1493;51.496;7.210;2023-07-29T08:33:42;2.37;;;1.30;;
2966;SDS011;1493;51.496;7.210;2023-07-29T08:36:09;3.10;;;2.03;;
2966;SDS011;1493;51.496;7.210;2023-07-29T08:38:36;1.90;;;1.50;;
2966;SDS011;1493;51.496;7.210;2023-07-29T08:41:05;6.10;;;1.70;;
2966;SDS011;1493;51.496;7.210;2023-07-29T08:43:40;2.60;;;1.60;;
2966;SDS011;1493;51.496;7.210;2023-07-29T08:46:14;2.63;;;2.00;;
2966;SDS011;1493;51.496;7.210;2023-07-29T08:48:43;2.60;;;2.03;;
2966;SDS011;1493;51.496;7.210;2023-07-29T08:51:10;3.10;;;2.27;;
2966;SDS011;1493;51.496;7.210;2023-07-29T08:53:38;3.10;;;2.07;;
2966;SDS011;1493;51.496;7.210;2023-07-29T08:56:06;3.30;;;1.93;;
2966;SDS011;1493;51.496;7.210;2023-07-29T08:58:33;2.17;;;1.70;;
2966;SDS011;1493;51.496;7.210;2023-07-29T09:01:01;2.27;;;1.83;;
2966;SDS011;1493;51.496;7.210;2023-07-29T09:03:36;3.37;;;2.50;;
2966;SDS011;1493;51.496;7.210;2023-07-29T09:06:04;5.47;;;3.93;;
2966;SDS011;1493;51.496;7.210;2023-07-29T09:08:32;2.97;;;2.67;;
2966;SDS011;1493;51.496;7.210;2023-07-29T09:11:00;2.97;;;2.53;;
2966;SDS011;1493;51.496;7.210;2023-07-29T09:13:27;4.10;;;2.30;;
2966;SDS011;1493;51.496;7.210;2023-07-29T09:15:54;3.60;;;2.63;;
2966;SDS011;1493;51.496;7.210;2023-07-29T09:18:23;2.60;;;2.40;;
2966;SDS011;1493;51.496;7.210;2023-07-29T09:20:53;2.33;;;2.13;;
2966;SDS011;1493;51.496;7.210;2023-07-29T09:23:21;2.87;;;2.60;;
2966;SDS011;1493;51.496;7.210;2023-07-29T09:25:48;3.27;;;2.97;;
2966;SDS011;1493;51.496;7.210;2023-07-29T09:28:16;3.60;;;2.40;;
2966;SDS011;1493;51.496;7.210;2023-07-29T09:30:45;2.77;;;2.30;;
2966;SDS011;1493;51.496;7.210;2023-07-29T09:33:13;2.60;;;2.00;;
2966;SDS011;1493;51.496;7.210;2023-07-29T09:35:40;2.90;;;1.73;;
2966;SDS011;1493;51.496;7.210;2023-07-29T09:38:06;3.27;;;2.07;;
2966;SDS011;1493;51.496;7.210;2023-07-29T09:40:35;5.50;;;1.73;;
2966;SDS011;1493;51.496;7.210;2023-07-29T09:43:03;3.50;;;1.47;;
2966;SDS011;1493;51.496;7.210;2023-07-29T09:45:32;2.63;;;1.60;;
2966;SDS011;1493;51.496;7.210;2023-07-29T09:48:00;2.30;;;1.70;;
2966;SDS011;1493;51.496;7.210;2023-07-29T09:50:27;1.90;;;1.40;;
2966;SDS011;1493;51.496;7.210;2023-07-29T09:52:55;2.17;;;1.40;;
2966;SDS011;1493;51.496;7.210;2023-07-29T09:55:24;1.90;;;1.23;;
2966;SDS011;1493;51.496;7.210;2023-07-29T09:57:54;2.33;;;1.53;;
2966;SDS011;1493;51.496;7.210;2023-07-29T10:00:25;3.83;;;1.60;;
2966;SDS011;1493;51.496;7.210;2023-07-29T10:02:52;1.90;;;1.30;;
2966;SDS011;1493;51.496;7.210;2023-07-29T10:05:20;2.20;;;1.67;;
2966;SDS011;1493;51.496;7.210;2023-07-29T10:07:48;2.70;;;2.00;;
2966;SDS011;1493;51.496;7.210;2023-07-29T10:10:16;2.10;;;1.57;;
2966;SDS011;1493;51.496;7.210;2023-07-29T10:12:43;2.43;;;1.60;;
2966;SDS011;1493;51.496;7.210;2023-07-29T10:15:12;1.97;;;1.50;;
2966;SDS011;1493;51.496;7.210;2023-07-29T10:17:39;2.43;;;1.80;;
2966;SDS011;1493;51.496;7.210;2023-07-29T10:20:06;3.27;;;1.80;;
2966;SDS011;1493;51.496;7.210;2023-07-29T10:22:36;2.20;;;1.67;;
2966;SDS011;1493;51.496;7.210;2023-07-29T10:25:04;2.60;;;1.67;;
2966;SDS011;1493;51.496;7.210;2023-07-29T10:27:35;2.67;;;1.70;;
2966;SDS011;1493;51.496;7.210;2023-07-29T10:30:09;2.40;;;1.90;;
2966;SDS011;1493;51.496;7.210;2023-07-29T10:32:40;2.20;;;1.90;;
2966;SDS011;1493;51.496;7.210;2023-07-29T10:35:08;3.80;;;1.90;;
2966;SDS011;1493;51.496;7.210;2023-07-29T10:37:35;2.93;;;1.50;;
2966;SDS011;1493;51.496;7.210;2023-07-29T10:40:05;3.30;;;1.87;;
2966;SDS011;1493;51.496;7.210;2023-07-29T10:42:33;2.30;;;1.10;;
2966;SDS011;1493;51.496;7.210;2023-07-29T10:45:03;1.77;;;1.10;;
2966;SDS011;1493;51.496;7.210;2023-07-29T10:47:45;2.40;;;1.30;;
2966;SDS011;1493;51.496;7.210;2023-07-29T10:50:16;2.03;;;1.13;;
2966;SDS011;1493;51.496;7.210;2023-07-29T10:52:46;1.90;;;1.30;;
2966;SDS011;1493;51.496;7.210;2023-07-29T10:55:25;2.07;;;1.30;;
2966;SDS011;1493;51.496;7.210;2023-07-29T10:58:04;1.80;;;1.40;;
2966;SDS011;1493;51.496;7.210;2023-07-29T11:00:36;2.30;;;1.47;;
2966;SDS011;1493;51.496;7.210;2023-07-29T11:03:04;2.27;;;1.70;;
2966;SDS011;1493;51.496;7.210;2023-07-29T11:05:42;2.40;;;1.63;;
2966;SDS011;1493;51.496;7.210;2023-07-29T11:08:17;3.60;;;1.50;;
2966;SDS011;1493;51.496;7.210;2023-07-29T11:10:50;2.10;;;1.40;;
2966;SDS011;1493;51.496;7.210;2023-07-29T11:13:26;2.63;;;1.33;;
2966;SDS011;1493;51.496;7.210;2023-07-29T11:15:55;2.00;;;1.50;;
2966;SDS011;1493;51.496;7.210;2023-07-29T11:18:24;2.60;;;1.60;;
2966;SDS011;1493;51.496;7.210;2023-07-29T11:20:53;2.43;;;1.70;;
2966;SDS011;1493;51.496;7.210;2023-07-29T11:23:20;3.00;;;1.80;;
2966;SDS011;1493;51.496;7.210;2023-07-29T11:25:54;2.60;;;1.80;;
2966;SDS011;1493;51.496;7.210;2023-07-29T11:28:21;3.03;;;1.70;;
2966;SDS011;1493;51.496;7.210;2023-07-29T11:30:49;3.10;;;1.90;;
2966;SDS011;1493;51.496;7.210;2023-07-29T11:33:18;2.33;;;1.63;;
2966;SDS011;1493;51.496;7.210;2023-07-29T11:35:46;2.07;;;1.57;;
2966;SDS011;1493;51.496;7.210;2023-07-29T11:38:14;2.27;;;1.77;;
2966;SDS011;1493;51.496;7.210;2023-07-29T11:40:41;2.43;;;1.33;;
2966;SDS011;1493;51.496;7.210;2023-07-29T11:43:08;2.40;;;1.70;;
2966;SDS011;1493;51.496;7.210;2023-07-29T11:45:35;2.47;;;1.63;;
2966;SDS011;1493;51.496;7.210;2023-07-29T11:48:02;3.53;;;1.83;;
2966;SDS011;1493;51.496;7.210;2023-07-29T11:50:30;2.00;;;1.10;;
2966;SDS011;1493;51.496;7.210;2023-07-29T11:52:57;2.00;;;1.30;;
2966;SDS011;1493;51.496;7.210;2023-07-29T11:55:24;2.17;;;1.40;;
2966;SDS011;1493;51.496;7.210;2023-07-29T11:57:51;2.33;;;1.27;;
2966;SDS011;1493;51.496;7.210;2023-07-29T12:00:19;2.10;;;1.30;;
2966;SDS011;1493;51.496;7.210;2023-07-29T12:02:47;3.60;;;1.60;;
2966;SDS011;1493;51.496;7.210;2023-07-29T12:05:15;2.37;;;1.27;;
2966;SDS011;1493;51.496;7.210;2023-07-29T12:07:47;3.37;;;1.53;;
2966;SDS011;1493;51.496;7.210;2023-07-29T12:10:18;2.20;;;1.10;;
2966;SDS011;1493;51.496;7.210;2023-07-29T12:12:47;12.10;;;2.07;;
2966;SDS011;1493;51.496;7.210;2023-07-29T12:15:22;3.37;;;1.10;;
2966;SDS011;1493;51.496;7.210;2023-07-29T12:17:51;2.17;;;1.20;;
2966;SDS011;1493;51.496;7.210;2023-07-29T12:20:19;2.43;;;1.50;;
2966;SDS011;1493;51.496;7.210;2023-07-29T12:22:52;2.00;;;1.40;;
2966;SDS011;1493;51.496;7.210;2023-07-29T12:25:20;5.27;;;1.30;;
2966;SDS011;1493;51.496;7.210;2023-07-29T12:27:47;3.10;;;1.47;;
2966;SDS011;1493;51.496;7.210;2023-07-29T12:30:13;2.87;;;1.20;;
2966;SDS011;1493;51.496;7.210;2023-07-29T12:32:45;2.93;;;1.10;;
2966;SDS011;1493;51.496;7.210;2023-07-29T12:35:12;3.07;;;1.57;;
2966;SDS011;1493;51.496;7.210;2023-07-29T12:37:39;2.20;;;1.30;;
2966;SDS011;1493;51.496;7.210;2023-07-29T12:40:09;4.30;;;2.63;;
2966;SDS011;1493;51.496;7.210;2023-07-29T12:42:49;3.70;;;2.40;;
2966;SDS011;1493;51.496;7.210;2023-07-29T12:45:16;1.90;;;1.20;;
2966;SDS011;1493;51.496;7.210;2023-07-29T12:47:43;2.13;;;1.43;;
2966;SDS011;1493;51.496;7.210;2023-07-29T12:50:10;2.00;;;1.00;;
2966;SDS011;1493;51.496;7.210;2023-07-29T12:52:37;2.53;;;1.60;;
2966;SDS011;1493;51.496;7.210;2023-07-29T12:55:04;2.43;;;1.57;;
2966;SDS011;1493;51.496;7.210;2023-07-29T12:57:34;4.37;;;1.50;;
2966;SDS011;1493;51.496;7.210;2023-07-29T13:00:02;2.20;;;1.20;;
2966;SDS011;1493;51.496;7.210;2023-07-29T13:02:29;2.53;;;1.20;;
2966;SDS011;1493;51.496;7.210;2023-07-29T13:04:56;2.33;;;1.33;;
2966;SDS011;1493;51.496;7.210;2023-07-29T13:07:23;2.30;;;1.27;;
2966;SDS011;1493;51.496;7.210;2023-07-29T13:09:53;2.63;;;1.30;;
2966;SDS011;1493;51.496;7.210;2023-07-29T13:12:20;2.63;;;1.33;;
2966;SDS011;1493;51.496;7.210;2023-07-29T13:14:50;2.30;;;1.37;;
2966;SDS011;1493;51.496;7.210;2023-07-29T13:17:17;2.57;;;1.47;;
2966;SDS011;1493;51.496;7.210;2023-07-29T13:19:44;2.30;;;1.40;;
2966;SDS011;1493;51.496;7.210;2023-07-29T13:22:10;2.63;;;1.63;;
2966;SDS011;1493;51.496;7.210;2023-07-29T13:24:40;2.47;;;1.47;;
2966;SDS011;1493;51.496;7.210;2023-07-29T13:27:08;2.10;;;1.40;;
2966;SDS011;1493;51.496;7.210;2023-07-29T13:29:38;3.83;;;1.23;;
2966;SDS011;1493;51.496;7.210;2023-07-29T13:32:08;2.33;;;1.30;;
2966;SDS011;1493;51.496;7.210;2023-07-29T13:34:35;2.50;;;1.40;;
2966;SDS011;1493;51.496;7.210;2023-07-29T13:37:05;2.60;;;1.60;;
2966;SDS011;1493;51.496;7.210;2023-07-29T13:39:35;2.10;;;1.20;;
2966;SDS011;1493;51.496;7.210;2023-07-29T13:42:06;3.60;;;1.50;;
2966;SDS011;1493;51.496;7.210;2023-07-29T13:44:33;2.50;;;1.20;;
2966;SDS011;1493;51.496;7.210;2023-07-29T13:47:05;7.00;;;1.80;;
2966;SDS011;1493;51.496;7.210;2023-07-29T13:49:34;3.17;;;1.40;;
2966;SDS011;1493;51.496;7.210;2023-07-29T13:52:01;3.93;;;1.70;;
2966;SDS011;1493;51.496;7.210;2023-07-29T13:54:27;3.13;;;1.30;;
2966;SDS011;1493;51.496;7.210;2023-07-29T13:56:54;2.80;;;1.87;;
2966;SDS011;1493;51.496;7.210;2023-07-29T13:59:21;2.37;;;1.77;;
2966;SDS011;1493;51.496;7.210;2023-07-29T14:01:48;3.30;;;1.57;;
2966;SDS011;1493;51.496;7.210;2023-07-29T14:04:15;2.23;;;1.30;;
2966;SDS011;1493;51.496;7.210;2023-07-29T14:06:49;2.73;;;1.90;;
2966;SDS011;1493;51.496;7.210;2023-07-29T14:09:16;3.00;;;1.90;;
2966;SDS011;1493;51.496;7.210;2023-07-29T14:11:47;2.13;;;1.33;;
2966;SDS011;1493;51.496;7.210;2023-07-29T14:14:14;2.97;;;1.77;;
2966;SDS011;1493;51.496;7.210;2023-07-29T14:16:41;3.23;;;2.43;;
2966;SDS011;1493;51.496;7.210;2023-07-29T14:19:08;4.00;;;2.63;;
2966;SDS011;1493;51.496;7.210;2023-07-29T14:21:35;2.70;;;2.07;;
2966;SDS011;1493;51.496;7.210;2023-07-29T14:24:03;3.57;;;1.97;;
2966;SDS011;1493;51.496;7.210;2023-07-29T14:26:31;3.70;;;2.63;;
2966;SDS011;1493;51.496;7.210;2023-07-29T14:28:58;4.90;;;2.80;;
2966;SDS011;1493;51.496;7.210;2023-07-29T14:31:25;5.20;;;2.30;;
2966;SDS011;1493;51.496;7.210;2023-07-29T14:33:51;5.43;;;2.10;;
2966;SDS011;1493;51.496;7.210;2023-07-29T14:36:18;3.47;;;1.93;;
2966;SDS011;1493;51.496;7.210;2023-07-29T14:38:45;3.70;;;1.83;;
2966;SDS011;1493;51.496;7.210;2023-07-29T14:41:13;3.03;;;1.50;;
2966;SDS011;1493;51.496;7.210;2023-07-29T14:43:40;3.37;;;1.67;;
2966;SDS011;1493;51.496;7.210;2023-07-29T14:46:07;2.53;;;1.60;;
2966;SDS011;1493;51.496;7.210;2023-07-29T14:48:33;3.93;;;1.50;;
2966;SDS011;1493;51.496;7.210;2023-07-29T14:51:00;2.27;;;1.53;;
2966;SDS011;1493;51.496;7.210;2023-07-29T14:53:27;5.20;;;2.00;;
2966;SDS011;1493;51.496;7.210;2023-07-29T14:55:54;2.83;;;1.87;;
2966;SDS011;1493;51.496;7.210;2023-07-29T14:58:22;3.07;;;1.40;;
2966;SDS011;1493;51.496;7.210;2023-07-29T15:00:50;2.63;;;1.83;;
2966;SDS011;1493;51.496;7.210;2023-07-29T15:03:17;2.20;;;1.53;;
2966;SDS011;1493;51.496;7.210;2023-07-29T15:05:44;5.60;;;1.70;;
2966;SDS011;1493;51.496;7.210;2023-07-29T15:08:11;2.17;;;1.50;;
2966;SDS011;1493;51.496;7.210;2023-07-29T15:10:38;2.10;;;1.40;;
2966;SDS011;1493;51.496;7.210;2023-07-29T15:13:05;2.13;;;1.50;;
2966;SDS011;1493;51.496;7.210;2023-07-29T15:15:33;2.13;;;1.43;;
2966;SDS011;1493;51.496;7.210;2023-07-29T15:18:00;2.90;;;1.67;;
2966;SDS011;1493;51.496;7.210;2023-07-29T15:20:27;3.17;;;1.80;;